Time;durP1;ratioP1;P1;durP2;ratioP2;P2;SDS_P1;SDS_P2;PMS_P1;PMS_P2;Temp;Humidity;BMP_temperature;BMP_pressure;BME280_temperature;BME280_humidity;BME280_pressure;Samples;Min_cycle;Max_cycle;Signal;HPM_P1;HPM_P2
2021/07/13 00:00:57;;;;;;;;;;;;;;;20.20;58.74;96971.67;1845842;77;20136;-74
2021/07/13 00:03:23;;;;;;;;;;;;;;;20.19;58.14;96970.53;1842678;77;20086;-71
2021/07/13 00:05:50;;;;;;;;;;;;;;;20.15;53.30;96966.07;1833984;77;20097;-75
2021/07/13 00:08:16;;;;;;;;;;;;;;;20.11;58.45;96968.30;1838944;77;20088;-71
2021/07/13 00:10:44;;;;;;;;;;;;;;;20.08;60.82;96973.19;1830403;77;20096;-73
2021/07/13 00:13:10;;;;;;;;;;;;;;;20.05;58.29;96974.38;1830740;77;20119;-72
2021/07/13 00:15:39;;;;;;;;;;;;;;;20.03;59.34;96971.56;1848902;77;20129;-71
2021/07/13 00:18:06;;;;;;;;;;;;;;;19.99;59.54;96972.97;1849022;77;20121;-71
2021/07/13 00:20:33;;;;;;;;;;;;;;;19.94;57.31;96974.34;1850205;77;20168;-75
2021/07/13 00:22:59;;;;;;;;;;;;;;;19.92;60.26;96977.70;1832832;77;20425;-72
2021/07/13 00:25:27;;;;;;;;;;;;;;;19.90;60.13;96971.73;1843028;77;20217;-71
2021/07/13 00:27:55;;;;;;;;;;;;;;;19.88;60.42;96973.77;1832276;77;20126;-72
2021/07/13 00:30:22;;;;;;;;;;;;;;;19.84;60.79;96979.11;1830372;77;20179;-71
2021/07/13 00:32:49;;;;;;;;;;;;;;;19.79;61.42;96981.52;1841528;77;20403;-73
2021/07/13 00:35:16;;;;;;;;;;;;;;;19.76;61.35;96974.70;1833934;77;20191;-71
2021/07/13 00:37:43;;;;;;;;;;;;;;;19.74;61.50;96977.22;1841174;77;20152;-70
2021/07/13 00:40:11;;;;;;;;;;;;;;;19.73;59.98;96979.56;1828445;77;20461;-72
2021/07/13 00:42:38;;;;;;;;;;;;;;;19.71;60.24;96984.30;1840791;77;20222;-72
2021/07/13 00:45:06;;;;;;;;;;;;;;;19.70;57.57;96989.31;1844767;77;20097;-71
2021/07/13 00:47:32;;;;;;;;;;;;;;;19.66;64.85;96992.86;1843388;77;20167;-73
2021/07/13 00:50:00;;;;;;;;;;;;;;;19.64;61.73;96981.00;1850720;77;20175;-72
2021/07/13 00:52:28;;;;;;;;;;;;;;;19.66;61.63;96978.98;1836632;77;20100;-71
2021/07/13 00:54:56;;;;;;;;;;;;;;;19.65;62.15;96978.65;1841321;77;20146;-71
2021/07/13 00:57:22;;;;;;;;;;;;;;;19.68;61.37;96972.09;1846497;77;20917;-72
2021/07/13 00:59:48;;;;;;;;;;;;;;;19.69;61.47;96972.95;1845118;77;20409;-69
2021/07/13 01:02:16;;;;;;;;;;;;;;;19.69;61.00;96975.09;1847832;77;20118;-69
2021/07/13 01:04:46;;;;;;;;;;;;;;;19.65;60.82;96966.62;1845706;77;20143;-71
2021/07/13 01:07:31;;;;;;;;;;;;;;;19.64;60.49;96968.97;1844301;77;20358;-70
2021/07/13 01:10:13;;;;;;;;;;;;;;;19.63;61.09;96972.65;1843062;77;20132;-71
2021/07/13 01:12:45;;;;;;;;;;;;;;;19.63;61.53;96976.66;1844242;77;20421;-72
2021/07/13 01:15:14;;;;;;;;;;;;;;;19.58;61.22;96971.05;1839547;77;20411;-72
2021/07/13 01:17:50;;;;;;;;;;;;;;;19.57;61.58;96971.24;1846785;77;20396;-70
2021/07/13 01:20:53;;;;;;;;;;;;;;;19.55;60.07;96968.73;1827146;77;20096;-70
2021/07/13 01:23:28;;;;;;;;;;;;;;;19.54;60.06;96972.41;1793261;79;20156;-72
2021/07/13 01:26:32;;;;;;;;;;;;;;;19.51;61.27;96972.80;1797315;79;20404;-72
2021/07/13 01:29:01;;;;;;;;;;;;;;;19.47;61.26;96968.33;1845203;77;20187;-72
2021/07/13 01:31:28;;;;;;;;;;;;;;;19.43;61.28;96967.02;1833943;77;20381;-72
2021/07/13 01:34:04;;;;;;;;;;;;;;;19.39;61.19;96964.90;1835238;77;20416;-72
2021/07/13 01:36:36;;;;;;;;;;;;;;;19.35;60.16;96963.09;1791706;79;20411;-72
2021/07/13 01:39:04;;;;;;;;;;;;;;;19.31;61.43;96963.97;1773837;80;20166;-72
2021/07/13 01:41:32;;;;;;;;;;;;;;;19.28;61.26;96962.17;1770276;81;20175;-74
2021/07/13 01:43:58;;;;;;;;;;;;;;;19.23;60.88;96966.73;1847546;77;20146;-72
2021/07/13 01:46:25;;;;;;;;;;;;;;;19.21;62.27;96967.92;1829410;77;20092;-72
2021/07/13 01:48:54;;;;;;;;;;;;;;;19.17;61.37;96962.94;1831489;77;20116;-72
2021/07/13 01:51:21;;;;;;;;;;;;;;;19.12;62.71;96961.81;1840174;77;20113;-72
2021/07/13 01:53:48;;;;;;;;;;;;;;;19.06;63.56;96953.20;1842043;77;20104;-72
2021/07/13 01:56:15;;;;;;;;;;;;;;;19.00;62.46;96960.91;1842569;77;20087;-72
2021/07/13 01:58:42;;;;;;;;;;;;;;;19.00;63.11;96961.42;1845428;77;20089;-71
2021/07/13 02:01:11;;;;;;;;;;;;;;;18.99;63.85;96963.77;1850529;77;20430;-73
2021/07/13 02:03:38;;;;;;;;;;;;;;;19.00;63.43;96958.75;1847714;77;20146;-73
2021/07/13 02:06:05;;;;;;;;;;;;;;;19.00;63.99;96955.56;1845448;77;20147;-73
2021/07/13 02:08:37;;;;;;;;;;;;;;;19.01;63.23;96953.22;1840002;77;20163;-73
2021/07/13 02:11:06;;;;;;;;;;;;;;;19.03;62.20;96955.21;1846171;77;20150;-76
2021/07/13 02:13:32;;;;;;;;;;;;;;;19.03;63.00;96955.21;1842525;77;20124;-74
2021/07/13 02:16:00;;;;;;;;;;;;;;;19.04;61.88;96947.53;1846841;77;20087;-74
2021/07/13 02:18:27;;;;;;;;;;;;;;;19.03;62.85;96955.21;1844435;77;20096;-74
2021/07/13 02:20:55;;;;;;;;;;;;;;;19.04;64.19;96955.54;1840264;77;20373;-74
2021/07/13 02:23:21;;;;;;;;;;;;;;;19.06;64.35;96956.69;1840329;77;20111;-73
2021/07/13 02:25:49;;;;;;;;;;;;;;;19.10;62.71;96962.49;1830408;77;20167;-74
2021/07/13 02:28:19;;;;;;;;;;;;;;;19.09;61.90;96956.82;1845631;77;20144;-74
2021/07/13 02:30:48;;;;;;;;;;;;;;;19.08;63.71;96963.17;1837128;77;20534;-75
2021/07/13 02:33:21;;;;;;;;;;;;;;;19.09;64.29;96964.34;1847790;77;20096;-73
2021/07/13 02:35:55;;;;;;;;;;;;;;;19.11;63.83;96965.00;1849193;77;20085;-73
2021/07/13 02:38:22;;;;;;;;;;;;;;;19.12;61.89;96960.48;1839720;77;20143;-73
2021/07/13 02:40:51;;;;;;;;;;;;;;;19.09;62.59;96960.34;1840866;77;20092;-77
2021/07/13 02:43:19;;;;;;;;;;;;;;;19.04;61.33;96963.55;1828429;77;20120;-75
2021/07/13 02:45:45;;;;;;;;;;;;;;;19.06;60.98;96967.89;1844375;77;20262;-75
2021/07/13 02:48:13;;;;;;;;;;;;;;;19.06;63.59;96966.55;1842137;77;20100;-73
2021/07/13 02:50:42;;;;;;;;;;;;;;;19.06;63.27;96969.22;1846140;77;20193;-73
2021/07/13 02:53:10;;;;;;;;;;;;;;;19.04;63.38;96967.56;1846028;77;20467;-73
2021/07/13 02:55:37;;;;;;;;;;;;;;;19.07;63.45;96973.04;1843668;77;20361;-73
2021/07/13 02:58:04;;;;;;;;;;;;;;;19.09;63.52;96971.52;1838108;77;20112;-74
2021/07/13 03:00:33;;;;;;;;;;;;;;;19.10;63.90;96978.52;1823832;77;20119;-75
2021/07/13 03:02:59;;;;;;;;;;;;;;;19.12;63.47;96973.84;1842429;77;20100;-76
2021/07/13 03:05:26;;;;;;;;;;;;;;;19.12;63.50;96976.50;1846855;77;20171;-73
2021/07/13 03:07:53;;;;;;;;;;;;;;;19.11;64.84;96981.52;1844632;77;20115;-73
2021/07/13 03:10:22;;;;;;;;;;;;;;;19.10;64.10;96980.70;1842896;77;20088;-75
2021/07/13 03:12:50;;;;;;;;;;;;;;;19.14;63.73;96978.50;1835737;77;20107;-74
2021/07/13 03:15:21;;;;;;;;;;;;;;;19.15;64.70;96972.97;1846714;77;20096;-75
2021/07/13 03:17:48;;;;;;;;;;;;;;;19.17;64.62;96976.30;1836574;77;20073;-75
2021/07/13 03:20:14;;;;;;;;;;;;;;;19.18;63.35;96972.61;1831969;77;20142;-73
2021/07/13 03:22:43;;;;;;;;;;;;;;;19.14;62.78;96969.97;1847259;77;20114;-75
2021/07/13 03:25:13;;;;;;;;;;;;;;;19.14;62.64;96973.16;1850325;77;20118;-75
2021/07/13 03:27:40;;;;;;;;;;;;;;;19.11;61.95;96975.69;1838443;77;20096;-75
2021/07/13 03:30:08;;;;;;;;;;;;;;;19.02;64.14;96973.58;1843814;77;20099;-74
2021/07/13 03:32:35;;;;;;;;;;;;;;;18.98;61.70;96979.45;1848748;77;20099;-74
2021/07/13 03:35:03;;;;;;;;;;;;;;;18.93;63.09;96981.33;1849828;77;20107;-76
2021/07/13 03:37:30;;;;;;;;;;;;;;;18.90;66.18;96981.65;1845384;77;20141;-75
2021/07/13 03:39:57;;;;;;;;;;;;;;;18.93;65.30;96978.66;1819489;78;20106;-75
2021/07/13 03:42:24;;;;;;;;;;;;;;;18.96;63.39;96972.12;1844324;77;20096;-73
2021/07/13 03:44:51;;;;;;;;;;;;;;;19.01;63.55;96966.58;1843362;77;20104;-73
2021/07/13 03:47:20;;;;;;;;;;;;;;;19.09;63.72;96968.84;1839796;77;20088;-74
2021/07/13 03:49:48;;;;;;;;;;;;;;;19.15;63.34;96970.81;1841680;77;20112;-74
2021/07/13 03:52:14;;;;;;;;;;;;;;;19.23;64.34;96969.40;1849998;77;20118;-72
2021/07/13 03:54:40;;;;;;;;;;;;;;;19.37;61.79;96970.92;1824892;77;20375;-74
2021/07/13 03:57:07;;;;;;;;;;;;;;;19.50;64.15;96970.62;1840575;77;20424;-75
2021/07/13 03:59:34;;;;;;;;;;;;;;;19.65;63.88;96970.62;1843205;77;20134;-75
2021/07/13 04:02:00;;;;;;;;;;;;;;;19.85;63.55;96979.95;1843493;77;20096;-75
2021/07/13 04:04:28;;;;;;;;;;;;;;;20.14;63.44;96981.80;1835589;77;20105;-74
2021/07/13 04:06:54;;;;;;;;;;;;;;;20.54;62.53;96974.23;1834670;77;20100;-73
2021/07/13 04:09:20;;;;;;;;;;;;;;;21.05;62.07;96974.66;1843129;77;20103;-75
2021/07/13 04:11:46;;;;;;;;;;;;;;;21.53;61.38;96976.66;1849382;77;20360;-74
2021/07/13 04:14:12;;;;;;;;;;;;;;;22.06;60.33;96973.98;1848867;77;20203;-75
2021/07/13 04:16:38;;;;;;;;;;;;;;;22.56;58.93;96973.77;1839593;77;20092;-75
2021/07/13 04:19:04;;;;;;;;;;;;;;;23.06;57.38;96973.44;1839653;77;20100;-75
2021/07/13 04:21:30;;;;;;;;;;;;;;;23.56;55.89;96964.14;1851205;77;20205;-75
2021/07/13 04:23:57;;;;;;;;;;;;;;;24.07;54.72;96965.81;1822495;77;20123;-74
2021/07/13 04:26:25;;;;;;;;;;;;;;;24.52;53.92;96963.12;1845426;77;20103;-77
2021/07/13 04:28:51;;;;;;;;;;;;;;;25.00;52.25;96965.03;1846849;77;20104;-76
2021/07/13 04:31:17;;;;;;;;;;;;;;;25.44;51.59;96957.83;1840160;77;20100;-73
2021/07/13 04:33:43;;;;;;;;;;;;;;;25.88;50.31;96957.27;1840523;77;20190;-73
2021/07/13 04:36:10;;;;;;;;;;;;;;;26.42;49.29;96956.64;1836366;77;20116;-72
2021/07/13 04:38:36;;;;;;;;;;;;;;;26.94;48.00;96951.28;1844529;77;20421;-72
2021/07/13 04:41:03;;;;;;;;;;;;;;;27.39;46.05;96952.61;1834522;77;20099;-72
2021/07/13 04:43:29;;;;;;;;;;;;;;;27.85;45.32;96963.69;1833490;77;20166;-74
2021/07/13 04:45:55;;;;;;;;;;;;;;;28.25;43.83;96967.00;1835194;77;20103;-72
2021/07/13 04:48:21;;;;;;;;;;;;;;;28.68;43.08;96960.23;1829551;77;20194;-71
2021/07/13 04:50:47;;;;;;;;;;;;;;;29.09;41.61;96963.41;1839026;77;20123;-72
2021/07/13 04:53:13;;;;;;;;;;;;;;;29.37;42.45;96965.23;1841665;77;20100;-72
2021/07/13 04:55:39;;;;;;;;;;;;;;;29.48;46.08;96965.39;1847407;77;20096;-73
2021/07/13 04:58:06;;;;;;;;;;;;;;;29.38;44.95;96973.66;1843168;77;20096;-71
2021/07/13 05:00:32;;;;;;;;;;;;;;;29.08;43.28;96965.83;1829144;77;20096;-73
2021/07/13 05:02:58;;;;;;;;;;;;;;;28.93;41.70;96968.55;1839649;77;20400;-73
2021/07/13 05:05:24;;;;;;;;;;;;;;;29.07;44.07;96976.39;1846874;77;20127;-72
2021/07/13 05:07:50;;;;;;;;;;;;;;;29.12;41.47;96977.81;1849531;77;20201;-75
2021/07/13 05:10:17;;;;;;;;;;;;;;;28.89;42.46;96984.20;1838584;77;20103;-73
2021/07/13 05:12:44;;;;;;;;;;;;;;;28.45;40.98;96984.70;1816676;77;20382;-73
2021/07/13 05:15:12;;;;;;;;;;;;;;;28.55;42.98;96987.62;1834330;77;20124;-73
2021/07/13 05:17:38;;;;;;;;;;;;;;;28.94;41.42;96990.55;1824967;77;20120;-76
2021/07/13 05:20:06;;;;;;;;;;;;;;;29.33;41.02;96991.76;1830605;77;20100;-79
2021/07/13 05:22:33;;;;;;;;;;;;;;;29.59;42.61;96993.80;1847079;77;20175;-73
2021/07/13 05:25:00;;;;;;;;;;;;;;;30.02;40.39;96992.81;1849999;77;20096;-74
2021/07/13 05:27:26;;;;;;;;;;;;;;;30.36;39.48;96990.52;1839748;77;20092;-72
2021/07/13 05:29:52;;;;;;;;;;;;;;;30.72;41.32;96995.02;1844265;77;20174;-73
2021/07/13 05:32:18;;;;;;;;;;;;;;;30.95;40.34;96993.09;1843711;77;20100;-75
2021/07/13 05:34:44;;;;;;;;;;;;;;;31.09;37.83;96989.41;1847426;77;20121;-73
2021/07/13 05:37:11;;;;;;;;;;;;;;;31.36;36.38;96988.56;1841713;77;20080;-71
2021/07/13 05:39:38;;;;;;;;;;;;;;;31.39;36.04;96986.14;1835683;77;20088;-73
2021/07/13 05:42:04;;;;;;;;;;;;;;;31.33;37.88;96997.24;1817892;77;20170;-74
2021/07/13 05:44:30;;;;;;;;;;;;;;;31.09;36.57;96994.30;1825348;78;20128;-71
2021/07/13 05:46:56;;;;;;;;;;;;;;;30.63;38.97;96997.91;1845037;77;20116;-73
2021/07/13 05:49:22;;;;;;;;;;;;;;;30.43;39.17;96992.49;1841321;77;20104;-70
2021/07/13 05:51:48;;;;;;;;;;;;;;;30.66;38.72;96995.50;1842132;77;20104;-71
2021/07/13 05:54:14;;;;;;;;;;;;;;;30.90;38.78;96987.58;1841279;77;20179;-74
2021/07/13 05:56:40;;;;;;;;;;;;;;;31.08;37.98;96987.20;1837896;77;20103;-73
2021/07/13 05:59:08;;;;;;;;;;;;;;;31.04;37.42;96990.70;1828716;77;20105;-75
2021/07/13 06:01:35;;;;;;;;;;;;;;;30.78;37.81;96981.75;1851171;77;20106;-74
2021/07/13 06:04:01;;;;;;;;;;;;;;;30.46;38.35;96993.36;1835554;77;20118;-73
2021/07/13 06:06:27;;;;;;;;;;;;;;;30.43;39.09;96992.49;1817988;77;20154;-72
2021/07/13 06:08:53;;;;;;;;;;;;;;;29.87;39.35;96989.86;1851185;77;20114;-72
2021/07/13 06:11:20;;;;;;;;;;;;;;;30.05;40.19;96992.31;1846810;77;20219;-72
2021/07/13 06:13:46;;;;;;;;;;;;;;;30.34;39.19;96989.94;1813515;77;20147;-70
2021/07/13 06:16:12;;;;;;;;;;;;;;;30.59;38.45;96996.25;1819650;77;20152;-72
2021/07/13 06:18:38;;;;;;;;;;;;;;;30.50;39.22;96989.59;1833176;77;20242;-73
2021/07/13 06:21:05;;;;;;;;;;;;;;;30.43;37.95;96993.85;1832819;77;20381;-73
2021/07/13 06:23:31;;;;;;;;;;;;;;;30.38;38.66;96989.73;1834008;77;20361;-73
2021/07/13 06:25:57;;;;;;;;;;;;;;;30.20;39.13;96994.41;1822608;77;21156;-72
2021/07/13 06:28:23;;;;;;;;;;;;;;;30.11;39.62;96995.09;1822638;77;20135;-72
2021/07/13 06:30:49;;;;;;;;;;;;;;;30.42;39.47;96996.28;1829611;77;20080;-73
2021/07/13 06:33:16;;;;;;;;;;;;;;;30.19;39.39;96993.28;1839596;77;20166;-72
2021/07/13 06:35:45;;;;;;;;;;;;;;;30.17;39.69;96996.27;1833123;77;20131;-72
2021/07/13 06:38:10;;;;;;;;;;;;;;;30.26;39.40;96994.46;1839649;78;20077;-74
2021/07/13 06:40:36;;;;;;;;;;;;;;;29.81;39.75;97003.91;1825750;77;20104;-75
2021/07/13 06:43:02;;;;;;;;;;;;;;;29.05;41.45;96992.08;1834743;77;20151;-74
2021/07/13 06:45:28;;;;;;;;;;;;;;;29.21;41.23;96995.34;1822688;77;20140;-77
2021/07/13 06:47:55;;;;;;;;;;;;;;;29.46;41.41;96995.52;1826271;77;20103;-75
2021/07/13 06:50:23;;;;;;;;;;;;;;;30.06;40.98;96984.45;1848437;77;20092;-72
2021/07/13 06:52:50;;;;;;;;;;;;;;;30.19;39.75;96989.20;1847794;77;20119;-73
2021/07/13 06:55:16;;;;;;;;;;;;;;;29.82;40.47;96983.82;1792981;77;20145;-71
2021/07/13 06:57:42;;;;;;;;;;;;;;;29.34;41.42;96986.62;1849298;77;20116;-73
2021/07/13 07:00:10;;;;;;;;;;;;;;;29.55;41.81;96989.95;1849761;77;20146;-75
2021/07/13 07:02:37;;;;;;;;;;;;;;;29.93;41.07;96983.45;1817462;77;20146;-71
2021/07/13 07:05:06;;;;;;;;;;;;;;;29.66;41.50;96984.13;1842677;77;20132;-72
2021/07/13 07:07:32;;;;;;;;;;;;;;;29.55;41.79;96987.23;1825655;77;20393;-72
2021/07/13 07:09:58;;;;;;;;;;;;;;;29.60;41.78;96987.85;1846208;77;20521;-72
2021/07/13 07:12:24;;;;;;;;;;;;;;;29.72;41.66;96987.75;1849698;77;20084;-73
2021/07/13 07:14:50;;;;;;;;;;;;;;;29.28;42.60;96989.75;1839102;77;20096;-72
2021/07/13 07:17:16;;;;;;;;;;;;;;;29.10;42.94;96988.08;1848709;77;20092;-73
2021/07/13 07:19:44;;;;;;;;;;;;;;;28.77;43.79;96995.11;1847333;77;20182;-73
2021/07/13 07:22:10;;;;;;;;;;;;;;;29.07;43.33;96994.02;1849195;77;20161;-73
2021/07/13 07:24:36;;;;;;;;;;;;;;;29.23;43.37;96990.49;1843289;77;20454;-76
2021/07/13 07:27:02;;;;;;;;;;;;;;;29.70;42.42;96992.59;1847224;77;20128;-79
2021/07/13 07:29:28;;;;;;;;;;;;;;;29.99;41.87;96989.22;1836865;77;20210;-74
2021/07/13 07:31:54;;;;;;;;;;;;;;;30.22;41.39;96999.03;1829122;77;20092;-76
2021/07/13 07:34:20;;;;;;;;;;;;;;;30.04;41.74;96995.27;1836764;77;20092;-74
2021/07/13 07:36:46;;;;;;;;;;;;;;;30.11;42.08;96994.56;1841669;77;20141;-74
2021/07/13 07:39:12;;;;;;;;;;;;;;;30.32;41.43;96984.77;1849595;77;20121;-78
2021/07/13 07:41:38;;;;;;;;;;;;;;;30.43;41.56;96996.58;1853967;77;20207;-79
2021/07/13 07:44:05;;;;;;;;;;;;;;;30.78;41.35;96987.73;1851440;77;20114;-78
2021/07/13 07:46:31;;;;;;;;;;;;;;;31.14;40.37;96988.11;1849258;77;20150;-76
2021/07/13 07:48:58;;;;;;;;;;;;;;;31.17;40.55;96982.67;1849204;77;20114;-78
2021/07/13 07:51:24;;;;;;;;;;;;;;;31.41;40.62;96981.27;1838815;77;20088;-78
2021/07/13 07:53:50;;;;;;;;;;;;;;;31.39;40.29;96980.70;1837605;77;20088;-73
2021/07/13 07:56:16;;;;;;;;;;;;;;;31.38;40.04;96981.77;1833291;77;20393;-78
2021/07/13 07:58:42;;;;;;;;;;;;;;;31.25;40.05;96978.12;1847570;77;20471;-79
2021/07/13 08:01:08;;;;;;;;;;;;;;;30.86;40.76;96978.30;1851294;77;20390;-79
2021/07/13 08:03:34;;;;;;;;;;;;;;;31.03;41.09;96975.45;1839613;77;20088;-78
2021/07/13 08:06:00;;;;;;;;;;;;;;;31.18;40.59;96977.52;1824501;77;20100;-80
2021/07/13 08:08:26;;;;;;;;;;;;;;;31.28;40.54;96983.86;1848734;77;20131;-75
2021/07/13 08:10:53;;;;;;;;;;;;;;;31.37;40.23;96976.60;1836450;77;20100;-79
2021/07/13 08:13:23;;;;;;;;;;;;;;;31.34;40.08;96977.11;1836293;77;20404;-79
2021/07/13 08:15:50;;;;;;;;;;;;;;;31.13;40.75;96982.37;1835202;77;20179;-75
2021/07/13 08:18:16;;;;;;;;;;;;;;;31.10;40.52;96986.45;1846615;77;20202;-77
2021/07/13 08:20:42;;;;;;;;;;;;;;;30.87;41.14;96979.40;1827106;77;20188;-79
2021/07/13 08:23:08;;;;;;;;;;;;;;;31.03;40.90;96976.29;1846603;77;20428;-79
2021/07/13 08:25:34;;;;;;;;;;;;;;;31.10;40.78;96980.13;1848733;77;20112;-78
2021/07/13 08:28:00;;;;;;;;;;;;;;;31.19;40.93;96977.80;1834309;77;20095;-75
2021/07/13 08:30:27;;;;;;;;;;;;;;;31.36;40.70;96971.68;1845049;77;20119;-74
2021/07/13 08:32:55;;;;;;;;;;;;;;;31.25;40.62;96969.95;1849137;77;20100;-76
2021/07/13 08:35:21;;;;;;;;;;;;;;;31.24;40.64;96969.67;1847055;77;20100;-75
2021/07/13 08:37:51;;;;;;;;;;;;;;;31.26;40.54;96974.31;1848177;77;20111;-77
2021/07/13 08:40:17;;;;;;;;;;;;;;;31.02;40.85;96983.33;1836867;77;20103;-78
2021/07/13 08:42:44;;;;;;;;;;;;;;;30.94;40.83;96966.95;1823716;77;20096;-74
2021/07/13 08:45:15;;;;;;;;;;;;;;;30.89;41.22;96966.89;1825977;77;20350;-73
2021/07/13 08:47:45;;;;;;;;;;;;;;;31.05;40.91;96972.75;1846365;77;20136;-75
2021/07/13 08:50:13;;;;;;;;;;;;;;;31.06;40.90;96962.14;1847530;77;20148;-76
2021/07/13 08:52:40;;;;;;;;;;;;;;;31.03;40.51;96958.60;1846991;77;20132;-75
2021/07/13 08:55:07;;;;;;;;;;;;;;;30.69;41.26;96956.92;1839596;77;20175;-76
2021/07/13 08:57:34;;;;;;;;;;;;;;;30.86;40.63;96962.79;1846624;77;20140;-77
2021/07/13 09:00:02;;;;;;;;;;;;;;;30.68;41.39;96958.52;1847663;77;20112;-76
2021/07/13 09:02:28;;;;;;;;;;;;;;;30.79;41.61;96956.75;1839384;77;20121;-73
2021/07/13 09:04:54;;;;;;;;;;;;;;;30.93;41.19;96955.23;1839631;77;20251;-76
2021/07/13 09:07:20;;;;;;;;;;;;;;;31.07;41.10;96956.98;1814704;77;20100;-79
2021/07/13 09:09:52;;;;;;;;;;;;;;;31.17;40.27;96962.27;1842858;77;20104;-75
